Time;durP1;ratioP1;P1;durP2;ratioP2;P2;SDS_P1;SDS_P2;PMS_P1;PMS_P2;Temp;Humidity;BMP_temperature;BMP_pressure;BME280_temperature;BME280_humidity;BME280_pressure;Samples;Min_cycle;Max_cycle;Signal;HPM_P1;HPM_P2
2023/01/13 00:00:25;;;;;;;30.40;12.63;;;;;;;-1.68;89.03;101241.91;122922;1102;104364;-80
2023/01/13 00:03:16;;;;;;;30.20;12.20;;;;;;;-1.67;88.27;101240.22;122865;1101;104364;-79
2023/01/13 00:05:47;;;;;;;33.90;11.33;;;;;;;-1.69;88.78;101245.22;123008;1102;104245;-80
2023/01/13 00:08:18;;;;;;;34.00;13.10;;;;;;;-1.70;88.37;101229.64;122933;1102;104405;-79
2023/01/13 00:10:50;;;;;;;31.67;12.60;;;;;;;-1.71;89.33;101231.31;122802;1102;104277;-79
2023/01/13 00:13:25;;;;;;;45.27;13.83;;;;;;;-1.73;88.17;101231.91;122832;1102;104278;-79
2023/01/13 00:16:00;;;;;;;42.40;14.55;;;;;;;-1.73;88.91;101231.91;122847;1102;104373;-80
2023/01/13 00:18:32;;;;;;;34.53;14.00;;;;;;;-1.75;89.13;101225.72;122897;1102;104248;-79
2023/01/13 00:21:05;;;;;;;40.57;14.10;;;;;;;-1.78;88.65;101231.47;122738;1102;104354;-80
2023/01/13 00:23:38;;;;;;;36.37;14.17;;;;;;;-1.81;88.87;101231.17;122899;1105;104368;-79
2023/01/13 00:26:11;;;;;;;35.43;13.43;;;;;;;-1.81;88.10;101223.45;122893;1102;104257;-79
2023/01/13 00:28:43;;;;;;;41.77;14.40;;;;;;;-1.84;89.36;101225.73;123010;1102;104188;-80
2023/01/13 00:31:16;;;;;;;34.53;13.83;;;;;;;-1.85;89.32;101223.94;122841;1102;104331;-79
2023/01/13 00:33:49;;;;;;;40.45;13.30;;;;;;;-1.87;88.14;101226.36;122912;1105;104334;-79
2023/01/13 00:36:22;;;;;;;33.00;12.95;;;;;;;-1.87;88.64;101226.36;122919;1105;104334;-79
2023/01/13 00:38:53;;;;;;;34.83;13.33;;;;;;;-1.87;88.90;101228.94;122972;1104;104353;-80
2023/01/13 00:41:26;;;;;;;33.27;12.80;;;;;;;-1.86;88.15;101227.26;122851;1102;104351;-79
2023/01/13 00:43:57;;;;;;;34.83;13.27;;;;;;;-1.87;89.29;101225.44;122891;1102;104251;-79
2023/01/13 00:46:28;;;;;;;33.60;13.33;;;;;;;-1.88;88.86;101226.22;122888;1102;104358;-79
2023/01/13 00:49:00;;;;;;;36.13;15.07;;;;;;;-1.89;88.44;101226.97;122861;1105;104376;-80
2023/01/13 00:51:31;;;;;;;34.30;13.57;;;;;;;-1.90;88.14;101227.71;122957;1105;104178;-79
2023/01/13 00:54:02;;;;;;;34.63;13.10;;;;;;;-1.91;88.44;101226.81;122871;1102;104249;-79
2023/01/13 00:56:33;;;;;;;36.73;12.27;;;;;;;-1.90;88.17;101225.14;122898;1105;104275;-80
2023/01/13 00:59:05;;;;;;;36.75;12.65;;;;;;;-1.91;88.24;101223.34;122891;1102;104317;-79
2023/01/13 01:01:36;;;;;;;38.00;14.07;;;;;;;-1.92;89.33;101219.84;122835;1102;104284;-80
2023/01/13 01:04:07;;;;;;;36.20;13.50;;;;;;;-1.93;89.39;101214.55;122988;1105;104188;-80
2023/01/13 01:06:38;;;;;;;38.83;14.10;;;;;;;-1.92;88.38;101211.23;122803;1102;104335;-79
2023/01/13 01:09:12;;;;;;;35.23;13.50;;;;;;;-1.93;88.62;101210.34;122983;1105;104278;-80
2023/01/13 01:11:44;;;;;;;31.93;12.87;;;;;;;-1.94;88.43;101208.52;123005;1105;104655;-80
2023/01/13 01:14:16;;;;;;;32.63;12.43;;;;;;;-1.95;88.29;101203.22;122839;1105;104364;-80
2023/01/13 01:17:08;;;;;;;42.87;14.57;;;;;;;-1.96;88.93;101202.33;122845;1105;104248;-80
2023/01/13 01:19:39;;;;;;;37.30;14.73;;;;;;;-1.95;88.46;101200.64;122898;1104;110375;-79
2023/01/13 01:22:10;;;;;;;39.73;14.80;;;;;;;-1.97;88.38;101197.03;122924;1102;104283;-80
2023/01/13 01:24:44;;;;;;;36.60;15.33;;;;;;;-2.00;88.34;101205.34;122822;1104;104395;-80
2023/01/13 01:27:15;;;;;;;41.73;14.90;;;;;;;-2.02;88.76;101200.05;122811;1102;104319;-80
2023/01/13 01:29:47;;;;;;;39.10;14.45;;;;;;;-2.03;89.37;101197.33;122869;1103;104204;-80
2023/01/13 01:32:18;;;;;;;40.40;15.33;;;;;;;-2.04;88.66;101201.58;122865;1102;104297;-80
2023/01/13 01:34:50;;;;;;;45.17;16.07;;;;;;;-2.03;89.20;101185.37;122916;1101;104357;-80
2023/01/13 01:37:21;;;;;;;41.85;14.20;;;;;;;-2.02;88.33;101187.19;122821;1105;104248;-79
2023/01/13 01:39:52;;;;;;;29.87;13.43;;;;;;;-2.01;88.50;101193.23;122800;1102;104331;-79
2023/01/13 01:45:21;;;;;;;39.20;14.77;;;;;;;-2.00;89.32;101189.91;122833;1102;104281;-79
2023/01/13 01:47:57;;;;;;;38.77;12.93;;;;;;;-1.99;88.58;101192.63;122896;1102;104357;-79
2023/01/13 01:50:29;;;;;;;40.13;14.50;;;;;;;-1.97;88.79;101195.35;122860;1105;117866;-80
2023/01/13 01:53:07;;;;;;;41.00;14.30;;;;;;;-1.98;88.98;101185.81;122923;1102;104313;-79
2023/01/13 01:55:39;;;;;;;44.67;13.77;;;;;;;-1.96;89.44;101193.67;122849;1102;104261;-79
2023/01/13 01:58:15;;;;;;;34.63;13.57;;;;;;;-1.97;89.47;101190.20;122872;1102;104286;-79
2023/01/13 02:00:47;;;;;;;40.87;15.03;;;;;;;-1.97;89.35;101190.20;122949;1101;104294;-79
2023/01/13 02:03:19;;;;;;;39.40;15.70;;;;;;;-1.97;89.48;101181.59;122876;1102;104354;-79
2023/01/13 02:05:51;;;;;;;46.85;15.20;;;;;;;-1.98;88.17;101185.81;122847;1102;104271;-79
2023/01/13 02:08:22;;;;;;;40.07;15.07;;;;;;;-1.98;89.30;101183.23;122811;1102;104280;-79
2023/01/13 02:10:55;;;;;;;36.07;14.43;;;;;;;-1.98;88.74;101175.52;122762;1102;104240;-79
2023/01/13 02:13:26;;;;;;;37.67;14.37;;;;;;;-1.97;89.06;101177.34;122841;1102;104283;-79
2023/01/13 02:16:06;;;;;;;41.07;15.90;;;;;;;-2.00;89.20;101169.33;122813;1102;104351;-79
2023/01/13 02:18:54;;;;;;;44.20;15.75;;;;;;;-2.01;89.15;101172.66;122816;1102;104290;-79
2023/01/13 02:21:55;;;;;;;40.43;16.90;;;;;;;-1.99;88.68;101171.16;122834;1102;104304;-80
2023/01/13 02:25:01;;;;;;;42.17;15.80;;;;;;;-2.01;88.43;101173.58;122861;1102;104373;-79
2023/01/13 02:27:53;;;;;;;37.05;15.20;;;;;;;-1.99;88.72;101173.73;122925;1102;104229;-79
2023/01/13 02:33:47;;;;;;;35.90;15.83;;;;;;;-1.98;88.51;101178.09;122823;1102;104341;-80
2023/01/13 02:36:24;;;;;;;38.30;15.90;;;;;;;-1.98;88.90;101170.38;122906;1102;104286;-79
2023/01/13 02:39:01;;;;;;;37.55;16.00;;;;;;;-1.96;89.67;101165.38;122914;1103;104804;-80
2023/01/13 02:44:33;;;;;;;43.83;15.60;;;;;;;-1.96;88.45;101170.53;122843;1102;104267;-79
2023/01/13 02:47:10;;;;;;;41.63;15.80;;;;;;;-1.94;89.50;101166.46;122831;1105;104268;-79
2023/01/13 02:49:46;;;;;;;43.30;16.70;;;;;;;-1.94;88.83;101167.36;122798;1105;104251;-79
2023/01/13 02:52:21;;;;;;;39.67;16.13;;;;;;;-1.97;88.55;101161.91;122751;1102;104223;-79
2023/01/13 02:54:58;;;;;;;47.45;17.00;;;;;;;-1.98;89.56;101160.09;122778;1102;104364;-80
2023/01/13 02:57:32;;;;;;;41.00;16.10;;;;;;;-1.99;89.56;101159.20;122953;1102;104389;-79
2023/01/13 03:00:03;;;;;;;;;;;;;;;-1.99;89.17;101159.20;122869;1102;104325;-79
2023/01/13 03:02:34;;;;;;;40.40;18.10;;;;;;;-1.97;89.49;101158.45;122905;1102;104357;-78
2023/01/13 03:05:07;;;;;;;46.80;17.57;;;;;;;-1.96;89.46;101161.16;122795;1102;104258;-80
2023/01/13 03:08:06;;;;;;;45.77;17.00;;;;;;;-1.95;89.67;101151.77;123046;1102;104242;-79
2023/01/13 03:10:49;;;;;;;49.47;16.93;;;;;;;-1.93;89.91;101158.89;122879;1102;104647;-79
2023/01/13 03:13:44;;;;;;;39.10;16.77;;;;;;;-1.91;88.52;101161.61;122803;1102;104347;-79
2023/01/13 03:16:23;;;;;;;40.97;18.17;;;;;;;-1.92;88.71;101170.07;122890;1102;104229;-79
2023/01/13 03:19:07;;;;;;;48.90;17.70;;;;;;;-1.90;89.73;101169.47;122879;1102;104341;-79
2023/01/13 03:21:48;;;;;;;46.60;17.40;;;;;;;-1.90;88.74;101168.55;122846;1102;104284;-79
2023/01/13 03:24:26;;;;;;;48.63;17.87;;;;;;;-1.92;88.74;101176.11;122802;1102;104278;-79
2023/01/13 03:27:02;;;;;;;44.70;16.35;;;;;;;-1.91;88.80;101167.65;122865;1101;104277;-79
2023/01/13 03:29:37;;;;;;;42.13;17.13;;;;;;;-1.91;88.77;101170.22;123040;1102;104277;-80
2023/01/13 03:32:15;;;;;;;46.13;17.23;;;;;;;-1.90;89.60;101169.47;122882;1102;104274;-79
2023/01/13 03:34:50;;;;;;;54.70;18.00;;;;;;;-1.87;89.97;101169.77;122883;1102;104350;-80
2023/01/13 03:37:26;;;;;;;56.30;18.17;;;;;;;-1.85;89.20;101175.95;122893;1102;104400;-80
2023/01/13 03:40:04;;;;;;;45.83;16.93;;;;;;;-1.82;89.28;101183.08;122975;1102;104293;-80
2023/01/13 03:42:38;;;;;;;46.15;17.35;;;;;;;-1.81;89.11;101185.79;122887;1102;104312;-80
2023/01/13 03:45:15;;;;;;;46.53;17.37;;;;;;;-1.78;88.99;101181.69;122915;1102;104657;-80
2023/01/13 03:47:52;;;;;;;42.93;16.63;;;;;;;-1.75;90.18;101192.27;122911;1102;104321;-80
2023/01/13 03:50:27;;;;;;;42.60;16.67;;;;;;;-1.72;90.17;101183.17;122915;1102;104290;-79
2023/01/13 03:53:03;;;;;;;44.83;18.20;;;;;;;-1.69;90.27;101188.61;122909;1102;104242;-79
2023/01/13 03:55:38;;;;;;;41.90;16.65;;;;;;;-1.67;88.91;101186.18;122908;1102;104309;-80
2023/01/13 03:58:15;;;;;;;41.40;16.65;;;;;;;-1.64;89.52;101191.62;122931;1102;104303;-79
2023/01/13 04:00:52;;;;;;;40.13;16.43;;;;;;;-1.64;89.52;101186.48;122898;1102;104277;-79
2023/01/13 04:03:29;;;;;;;38.40;15.00;;;;;;;-1.66;88.88;101194.05;122925;1105;118616;-79
2023/01/13 04:06:13;;;;;;;41.00;16.37;;;;;;;-1.65;89.07;101194.98;122827;1105;104310;-79
2023/01/13 04:08:51;;;;;;;37.78;14.93;;;;;;;-1.65;89.57;101190.73;122799;1102;104392;-79
2023/01/13 04:11:30;;;;;;;38.00;16.03;;;;;;;-1.64;89.65;101194.20;122865;1102;104385;-79
2023/01/13 04:14:03;;;;;;;39.03;16.07;;;;;;;-1.63;89.53;101193.45;122959;1102;104272;-79
2023/01/13 04:16:35;;;;;;;35.15;15.30;;;;;;;-1.63;90.14;101199.48;122849;1102;104236;-79
2023/01/13 04:19:06;;;;;;;40.40;15.27;;;;;;;-1.62;90.09;101202.99;122843;1102;104222;-80
2023/01/13 04:21:37;;;;;;;39.47;15.60;;;;;;;-1.60;89.82;101187.70;123046;1102;105614;-80
2023/01/13 04:24:10;;;;;;;42.63;15.97;;;;;;;-1.60;89.60;101174.83;122998;1105;104376;-80
2023/01/13 04:26:41;;;;;;;39.87;15.30;;;;;;;-1.62;88.97;101182.41;122985;1105;104334;-80
2023/01/13 04:29:12;;;;;;;42.47;17.53;;;;;;;-1.63;89.71;101181.47;122947;1105;104300;-80
2023/01/13 04:31:44;;;;;;;37.43;15.63;;;;;;;-1.63;90.12;101185.73;122910;1102;104274;-79
2023/01/13 04:34:15;;;;;;;36.90;14.67;;;;;;;-1.63;90.13;101185.73;122880;1102;104403;-80
2023/01/13 04:36:46;;;;;;;38.17;14.70;;;;;;;-1.65;88.76;101187.26;123040;1102;104377;-81
2023/01/13 04:39:18;;;;;;;38.07;15.00;;;;;;;-1.63;89.41;101198.59;123096;1102;104373;-79
2023/01/13 04:42:00;;;;;;;32.30;14.85;;;;;;;-1.63;89.19;101188.30;123101;1102;104444;-81
2023/01/13 04:44:34;;;;;;;31.57;14.57;;;;;;;-1.63;90.13;101190.88;123348;1102;107797;-80
2023/01/13 04:47:05;;;;;;;34.33;15.30;;;;;;;-1.61;89.02;101197.06;123196;1102;104328;-80
2023/01/13 04:49:36;;;;;;;34.53;14.63;;;;;;;-1.61;89.92;101198.73;123224;1102;104258;-80
2023/01/13 04:52:08;;;;;;;34.87;13.73;;;;;;;-1.64;88.93;101205.42;123095;1102;104223;-80
2023/01/13 04:54:39;;;;;;;33.57;13.77;;;;;;;-1.63;90.30;101207.21;123085;1102;104383;-81
2023/01/13 04:57:10;;;;;;;33.57;13.63;;;;;;;-1.62;89.01;101208.14;123045;1102;104302;-80
2023/01/13 04:59:42;;;;;;;34.43;13.27;;;;;;;-1.61;89.63;101215.08;123074;1102;104300;-80
2023/01/13 05:02:18;;;;;;;37.40;14.13;;;;;;;-1.63;89.68;101214.03;123145;1102;104670;-81
2023/01/13 05:04:50;;;;;;;33.63;13.13;;;;;;;-1.63;90.39;101224.33;123122;1102;104287;-80
2023/01/13 05:07:21;;;;;;;32.40;13.77;;;;;;;-1.64;89.32;101225.08;123098;1102;104842;-80
2023/01/13 05:09:52;;;;;;;33.83;13.80;;;;;;;-1.65;89.85;101223.29;123105;1102;104251;-81
2023/01/13 05:18:03;;;;;;;31.03;12.70;;;;;;;-1.65;90.07;101225.86;123293;1105;104335;-80
2023/01/13 05:20:34;;;;;;;40.53;13.70;;;;;;;-1.64;90.23;101225.08;123154;1102;104342;-81
2023/01/13 05:25:54;;;;;;;29.10;12.10;;;;;;;-1.61;90.19;101233.09;123404;1103;104309;-81
2023/01/13 05:28:26;;;;;;;28.63;11.83;;;;;;;-1.61;89.96;101238.23;123225;1105;104329;-81
2023/01/13 05:30:58;;;;;;;31.27;12.23;;;;;;;-1.60;89.65;101236.59;123249;1105;104667;-81
2023/01/13 05:33:30;;;;;;;30.90;12.70;;;;;;;-1.59;89.26;101239.31;123161;1105;104376;-80
2023/01/13 05:36:04;;;;;;;31.10;12.43;;;;;;;-1.59;90.30;101247.04;123256;1102;104335;-80
2023/01/13 05:38:35;;;;;;;29.50;12.10;;;;;;;-1.59;89.24;101243.53;123297;1102;104252;-81
2023/01/13 05:43:56;;;;;;;29.55;11.05;;;;;;;-1.66;89.21;101239.48;123449;1102;104203;-81
2023/01/13 05:46:27;;;;;;;28.30;11.83;;;;;;;-1.68;89.22;101233.28;123669;1102;104274;-80
2023/01/13 05:49:00;;;;;;;33.93;13.10;;;;;;;-1.68;89.90;101235.86;123687;1102;104677;-81
2023/01/13 05:51:31;;;;;;;26.63;11.53;;;;;;;-1.69;90.19;101244.33;123440;1102;104238;-80
2023/01/13 05:54:03;;;;;;;31.93;12.63;;;;;;;-1.69;89.13;101254.63;123428;1102;104248;-80
2023/01/13 05:56:35;;;;;;;35.70;13.03;;;;;;;-1.70;89.05;101245.08;123445;1101;104178;-80
2023/01/13 05:59:06;;;;;;;29.83;12.67;;;;;;;-1.70;89.42;101251.16;123251;1102;104383;-80
2023/01/13 06:01:37;;;;;;;33.83;12.47;;;;;;;-1.67;90.12;101250.52;123544;1102;104216;-82
2023/01/13 06:04:08;;;;;;;33.10;12.30;;;;;;;-1.64;89.44;101256.89;123464;1102;104328;-80
2023/01/13 06:06:41;;;;;;;38.03;13.37;;;;;;;-1.60;89.89;101252.94;123487;1102;110612;-80
2023/01/13 06:09:13;;;;;;;34.57;13.00;;;;;;;-1.57;89.53;101257.45;123648;1102;104737;-80
2023/01/13 06:11:45;;;;;;;32.07;12.50;;;;;;;-1.54;89.63;101256.10;123631;1102;104326;-80
2023/01/13 06:14:16;;;;;;;33.87;13.07;;;;;;;-1.53;89.78;101254.42;123900;1102;104354;-81
2023/01/13 06:16:48;;;;;;;32.77;12.43;;;;;;;-1.54;89.50;101256.10;123883;1102;104169;-82
2023/01/13 06:19:19;;;;;;;37.10;14.13;;;;;;;-1.52;89.49;101262.29;123761;1102;104759;-80
2023/01/13 06:21:50;;;;;;;30.97;13.93;;;;;;;-1.52;89.38;101256.25;123921;1102;104169;-79
2023/01/13 06:24:22;;;;;;;34.97;14.77;;;;;;;-1.50;89.53;101254.72;124219;1102;104317;-80
2023/01/13 06:26:54;;;;;;;36.37;13.77;;;;;;;-1.48;89.39;101251.54;123959;1102;104217;-80
2023/01/13 06:29:25;;;;;;;38.03;12.87;;;;;;;-1.45;89.24;101254.41;124084;1102;104354;-79
2023/01/13 06:31:58;;;;;;;34.93;14.93;;;;;;;-1.46;89.26;101257.73;124256;1102;103032;-79
2023/01/13 06:34:30;;;;;;;33.10;13.20;;;;;;;-1.45;90.12;101254.41;125830;1101;102396;-78
2023/01/13 06:37:02;;;;;;;33.47;13.07;;;;;;;-1.41;89.64;101259.84;124116;1102;104253;-78
2023/01/13 06:39:35;;;;;;;33.50;13.87;;;;;;;-1.42;90.06;101255.45;124093;1102;104190;-78
2023/01/13 06:44:56;;;;;;;34.23;13.80;;;;;;;-1.39;89.12;101259.21;124162;1102;104173;-79
2023/01/13 06:47:27;;;;;;;33.97;13.47;;;;;;;-1.37;89.37;101265.44;124328;1102;104252;-79
2023/01/13 06:49:59;;;;;;;31.63;13.57;;;;;;;-1.38;89.11;101270.44;124728;1102;104347;-76
2023/01/13 06:52:31;;;;;;;33.70;13.55;;;;;;;-1.38;89.59;101270.44;124772;1102;104194;-78
2023/01/13 06:55:03;;;;;;;30.63;13.23;;;;;;;-1.31;90.18;101280.55;124357;1103;104252;-78
2023/01/13 06:57:34;;;;;;;36.30;14.77;;;;;;;-1.29;89.10;101273.89;124363;1102;103227;-77
2023/01/13 07:00:08;;;;;;;34.47;14.57;;;;;;;-1.31;88.89;101270.24;124313;1102;104284;-78
2023/01/13 07:02:39;;;;;;;36.25;14.55;;;;;;;-1.27;89.69;101278.41;124234;1102;104220;-77
2023/01/13 07:05:11;;;;;;;34.07;14.23;;;;;;;-1.25;88.96;101277.66;124190;1102;103169;-79
2023/01/13 07:07:47;;;;;;;32.80;14.17;;;;;;;-1.22;89.73;101283.09;124306;1102;102115;-77
2023/01/13 07:10:22;;;;;;;31.97;15.67;;;;;;;-1.19;89.65;101276.56;124330;1105;104325;-78
2023/01/13 07:15:42;;;;;;;33.77;13.63;;;;;;;-1.11;90.09;101290.17;124484;1102;102591;-77
2023/01/13 07:18:15;;;;;;;38.80;14.20;;;;;;;-1.11;89.58;101285.95;124472;1102;104185;-79
2023/01/13 07:20:52;;;;;;;38.00;14.80;;;;;;;-1.09;89.84;101286.09;124455;1105;104070;-80
2023/01/13 07:23:24;;;;;;;36.40;13.97;;;;;;;-1.06;88.85;101288.95;124415;1102;104290;-79
2023/01/13 07:25:56;;;;;;;31.37;15.03;;;;;;;-1.01;89.79;101289.36;124584;1102;104232;-82
2023/01/13 07:28:31;;;;;;;37.37;15.03;;;;;;;-0.98;88.81;101289.64;124582;1105;117811;-77
2023/01/13 07:31:03;;;;;;;34.10;17.00;;;;;;;-0.94;89.07;101291.77;124524;1102;102748;-77
2023/01/13 07:33:35;;;;;;;33.47;14.97;;;;;;;-0.89;88.73;101294.77;124863;1104;104198;-78
2023/01/13 07:36:09;;;;;;;37.73;14.90;;;;;;;-0.83;89.56;101300.50;125104;1103;104201;-77
2023/01/13 07:38:43;;;;;;;34.60;14.70;;;;;;;-0.87;89.01;101299.31;124929;1105;102943;-77
2023/01/13 07:44:04;;;;;;;36.70;15.20;;;;;;;-0.83;88.94;101300.50;124830;1105;102215;-76
2023/01/13 07:46:35;;;;;;;;;;;;;;;-0.82;88.21;101295.49;125289;1102;102857;-74
2023/01/13 07:49:12;;;;;;;41.47;16.20;;;;;;;-0.81;89.33;101292.16;125097;1102;102554;-77
2023/01/13 07:51:43;;;;;;;37.37;15.60;;;;;;;-0.78;88.74;101301.83;125123;1102;104385;-78
2023/01/13 07:54:15;;;;;;;36.70;15.97;;;;;;;-0.75;88.72;101302.13;124984;1102;104069;-77
2023/01/13 07:56:47;;;;;;;37.10;16.55;;;;;;;-0.70;89.74;101294.81;124924;1102;103000;-75
2023/01/13 07:59:19;;;;;;;37.33;15.70;;;;;;;-0.61;89.11;101305.98;124960;1102;102498;-77
2023/01/13 08:01:52;;;;;;;41.43;17.17;;;;;;;-0.58;89.16;101294.31;124864;1102;104236;-75
2023/01/13 08:04:26;;;;;;;36.88;15.30;;;;;;;-0.50;88.96;101289.83;124959;1102;103550;-76
2023/01/13 08:06:59;;;;;;;38.97;16.97;;;;;;;-0.40;89.02;101294.19;125740;1093;102770;-77
2023/01/13 08:09:31;;;;;;;41.73;17.27;;;;;;;-0.29;89.19;101292.59;125078;1102;102157;-78
2023/01/13 08:14:52;;;;;;;40.93;17.97;;;;;;;-0.10;89.42;101288.33;125289;1102;104242;-78
2023/01/13 08:17:24;;;;;;;41.40;18.10;;;;;;;-0.01;88.21;101291.75;125297;1102;103389;-76
2023/01/13 08:19:56;;;;;;;42.90;17.93;;;;;;;0.00;87.42;101295.25;125212;1102;104214;-77
2023/01/13 08:22:29;;;;;;;42.17;17.57;;;;;;;0.05;88.55;101293.06;125128;1102;104287;-76
2023/01/13 08:25:01;;;;;;;38.67;17.87;;;;;;;0.11;88.13;101297.13;125026;1102;102278;-77
2023/01/13 08:27:33;;;;;;;38.53;16.27;;;;;;;0.23;88.61;101291.23;124971;1102;102880;-79
2023/01/13 08:30:07;;;;;;;38.73;17.47;;;;;;;0.30;88.26;101299.67;125118;1102;102117;-75
2023/01/13 08:32:40;;;;;;;33.60;15.40;;;;;;;0.33;88.39;101289.62;124991;1102;102501;-79
2023/01/13 08:35:12;;;;;;;39.27;15.37;;;;;;;0.34;88.19;101285.34;124937;1102;102827;-81
2023/01/13 08:37:47;;;;;;;42.20;16.93;;;;;;;0.30;87.35;101289.34;124949;1102;104096;-79
2023/01/13 08:40:20;;;;;;;38.00;16.60;;;;;;;0.26;87.88;101276.02;124987;1102;102352;-80
2023/01/13 08:42:57;;;;;;;38.07;18.37;;;;;;;0.27;88.17;101278.74;125267;1102;103520;-80
2023/01/13 08:45:28;;;;;;;40.77;17.70;;;;;;;0.28;87.62;101285.73;125119;1102;104287;-81
2023/01/13 08:48:01;;;;;;;35.60;15.47;;;;;;;0.29;87.22;101287.52;125129;1102;104188;-79
2023/01/13 08:50:33;;;;;;;43.07;17.83;;;;;;;0.22;87.07;101282.59;125092;1102;102586;-82
2023/01/13 08:53:04;;;;;;;37.87;16.53;;;;;;;0.23;87.30;101284.39;124921;1102;102739;-81
2023/01/13 08:55:36;;;;;;;37.13;15.23;;;;;;;0.33;87.51;101287.03;125038;1102;105136;-81
2023/01/13 08:58:12;;;;;;;38.23;16.33;;;;;;;0.38;88.28;101284.86;124788;1102;102232;-81
2023/01/13 09:00:48;;;;;;;37.70;16.53;;;;;;;0.45;87.74;101274.32;125112;1102;103118;-82
2023/01/13 09:03:22;;;;;;;35.23;16.67;;;;;;;0.54;88.09;101281.95;125102;1102;103620;-78
2023/01/13 09:05:53;;;;;;;35.47;16.30;;;;;;;0.62;88.03;101278.36;124750;1102;102581;-77
2023/01/13 09:08:27;;;;;;;41.70;17.02;;;;;;;0.63;88.11;101275.02;125055;1102;102533;-78
2023/01/13 09:10:58;;;;;;;32.07;16.07;;;;;;;0.63;87.18;101261.20;124902;1102;104635;-77
2023/01/13 09:13:30;;;;;;;37.37;16.57;;;;;;;0.63;87.78;101267.27;125065;1102;104063;-78
2023/01/13 09:16:03;;;;;;;34.90;15.23;;;;;;;0.66;87.97;101253.73;125022;1102;102723;-77
2023/01/13 09:18:34;;;;;;;43.63;18.00;;;;;;;0.67;88.11;101243.53;125133;1102;104316;-78
2023/01/13 09:21:06;;;;;;;37.93;16.40;;;;;;;0.65;87.55;101247.63;125387;1102;102449;-78
2023/01/13 09:23:40;;;;;;;37.07;16.90;;;;;;;0.60;87.65;101248.02;125082;1102;102253;-83
2023/01/13 09:26:13;;;;;;;36.00;17.07;;;;;;;0.58;87.71;101236.63;125136;1102;104255;-78
2023/01/13 09:28:45;;;;;;;35.37;16.83;;;;;;;0.58;87.72;101236.63;125014;1101;103705;-80
2023/01/13 09:31:17;;;;;;;38.13;16.40;;;;;;;0.63;87.96;101225.05;124750;1105;104265;-78
2023/01/13 09:36:38;;;;;;;39.65;16.50;;;;;;;0.63;87.78;101225.94;125063;1102;104286;-78
2023/01/13 09:39:12;;;;;;;40.67;17.07;;;;;;;0.63;87.73;101223.36;124922;1102;104313;-78
2023/01/13 09:45:03;;;;;;;38.87;16.30;;;;;;;0.46;87.60;101227.05;125617;1102;102243;-80
2023/01/13 09:47:43;;;;;;;37.03;16.37;;;;;;;0.49;87.51;101229.90;125666;1102;102521;-77
2023/01/13 09:54:02;;;;;;;40.57;17.30;;;;;;;0.45;87.09;101221.75;124898;1102;104214;-75
2023/01/13 09:59:35;;;;;;;37.30;17.13;;;;;;;0.56;88.06;101223.58;125124;1102;104258;-78
2023/01/13 10:02:09;;;;;;;40.30;18.45;;;;;;;0.57;87.18;101222.82;125282;1099;104252;31
2023/01/13 10:04:43;;;;;;;40.83;16.50;;;;;;;0.57;87.12;101227.09;124880;1102;103110;-79
2023/01/13 10:07:22;;;;;;;39.27;17.90;;;;;;;0.48;87.10;101222.02;125433;1102;102504;-77
2023/01/13 10:13:18;;;;;;;40.70;17.23;;;;;;;0.53;87.47;101225.89;125957;1092;102117;-76
2023/01/13 10:15:59;;;;;;;40.25;18.30;;;;;;;0.58;87.69;101223.72;124781;1102;102260;-77
2023/01/13 10:18:41;;;;;;;38.80;18.30;;;;;;;0.62;87.79;101224.11;124745;1102;104236;-77
2023/01/13 10:21:41;;;;;;;40.17;18.67;;;;;;;0.64;87.85;101227.77;124794;1102;103029;-81
2023/01/13 10:24:22;;;;;;;39.20;19.03;;;;;;;0.67;88.06;101222.86;125086;1102;102247;-78
2023/01/13 10:27:15;;;;;;;42.37;17.47;;;;;;;0.67;88.12;101219.34;125527;1101;102695;-78
2023/01/13 10:29:53;;;;;;;40.00;16.93;;;;;;;0.70;87.89;101219.61;125187;1102;102545;-78
2023/01/13 10:32:29;;;;;;;37.17;17.37;;;;;;;0.71;87.88;101221.44;124968;1102;102307;-77
2023/01/13 10:35:07;;;;;;;35.87;17.27;;;;;;;0.78;87.54;101220.28;124855;1102;102294;-78
2023/01/13 10:37:56;;;;;;;35.00;17.43;;;;;;;0.83;87.50;101200.94;124933;1102;102713;-78
2023/01/13 10:40:31;;;;;;;34.57;16.33;;;;;;;0.89;87.73;101194.60;124834;1102;102016;-79
2023/01/13 10:43:07;;;;;;;33.87;16.33;;;;;;;0.88;87.40;101195.36;125077;1102;104111;-78
2023/01/13 10:50:21;;;;;;;39.30;16.75;;;;;;;0.86;87.59;101190.86;125713;1102;102794;-78
2023/01/13 10:57:26;;;;;;;34.10;15.53;;;;;;;0.84;87.66;101182.05;125515;1106;102545;-79
2023/01/13 11:00:36;;;;;;;35.30;15.63;;;;;;;0.82;87.25;101186.20;125655;1102;104207;-79
2023/01/13 11:03:22;;;;;;;35.40;15.97;;;;;;;0.82;87.24;101183.61;125913;1102;118316;-78
2023/01/13 11:06:00;;;;;;;39.93;17.23;;;;;;;0.76;87.25;101183.98;125855;1102;104019;-79
2023/01/13 11:08:48;;;;;;;37.27;16.50;;;;;;;0.73;86.79;101183.72;126251;1093;102535;-79
2023/01/13 11:11:58;;;;;;;;;;;;;;;;;;;;;
2023/01/13 11:18:00;;;;;;;37.80;17.40;;;;;;;0.82;86.90;101174.17;126307;1093;103249;-78
2023/01/13 11:20:51;;;;;;;35.63;17.60;;;;;;;0.79;87.14;101173.02;125840;1102;102513;-76
2023/01/13 11:23:30;;;;;;;38.97;17.53;;;;;;;0.75;86.89;101174.44;125163;1102;104256;-76
2023/01/13 11:26:06;;;;;;;33.87;16.70;;;;;;;0.77;87.23;101171.98;126034;1102;102468;-79
2023/01/13 11:28:52;;;;;;;42.17;17.57;;;;;;;0.76;87.52;101173.64;126094;1102;101867;-76
2023/01/13 11:31:33;;;;;;;40.28;18.17;;;;;;;0.73;87.09;101167.32;126036;1102;104436;-78
2023/01/13 11:34:14;;;;;;;34.70;16.80;;;;;;;0.71;87.17;101160.33;126283;1102;102962;-77
2023/01/13 11:36:53;;;;;;;39.07;15.67;;;;;;;0.68;87.04;101165.23;126010;1102;102213;-77
2023/01/13 11:39:44;;;;;;;38.27;15.80;;;;;;;0.66;86.97;101165.90;126154;1101;102357;-79
2023/01/13 11:42:24;;;;;;;34.93;17.03;;;;;;;0.67;87.00;101166.03;126160;1102;102534;-78
2023/01/13 11:45:03;;;;;;;39.80;15.90;;;;;;;0.75;87.22;101163.17;126232;1101;102112;-78
2023/01/13 11:53:35;;;;;;;41.37;18.53;;;;;;;0.78;87.53;101159.20;126653;1093;103259;-80
2023/01/13 11:56:34;;;;;;;43.13;18.70;;;;;;;0.78;87.49;101164.37;126025;1102;102657;-76
2023/01/13 11:59:40;;;;;;;42.37;18.87;;;;;;;0.81;87.81;101159.47;125913;1102;102116;-78
2023/01/13 12:02:43;;;;;;;41.27;19.40;;;;;;;0.88;87.53;101154.02;125926;1101;102594;-77
2023/01/13 12:05:35;;;;;;;49.97;20.67;;;;;;;0.91;87.40;101153.39;126054;1101;103020;-78
2023/01/13 12:08:22;;;;;;;41.10;19.03;;;;;;;0.87;87.52;101152.23;125968;1100;101423;-78
2023/01/13 12:11:05;;;;;;;43.07;20.13;;;;;;;0.78;86.79;101145.36;125735;1102;102220;-78
2023/01/13 12:13:48;;;;;;;44.73;21.40;;;;;;;0.67;86.89;101142.78;125020;1102;104274;-80
2023/01/13 12:16:25;;;;;;;45.40;19.90;;;;;;;0.59;86.42;101133.45;124829;1102;102160;-78
2023/01/13 12:19:27;;;;;;;43.17;20.30;;;;;;;0.51;86.33;101140.58;124861;1102;104152;-79
2023/01/13 12:22:10;;;;;;;43.53;18.90;;;;;;;0.49;86.89;101136.04;125471;1102;102420;-76
2023/01/13 12:24:49;;;;;;;42.80;19.73;;;;;;;0.51;87.33;101134.48;125405;1102;101875;-78
2023/01/13 12:27:32;;;;;;;44.90;18.90;;;;;;;0.52;87.19;101131.14;125365;1102;104194;-79
2023/01/13 12:30:18;;;;;;;43.03;18.30;;;;;;;0.53;87.09;101135.50;125189;1102;103560;-78
2023/01/13 12:32:52;;;;;;;40.63;19.13;;;;;;;0.53;87.83;101135.50;125052;1102;104292;-76
2023/01/13 12:35:38;;;;;;;45.90;19.63;;;;;;;0.50;87.12;101135.28;124895;1102;102354;-80
2023/01/13 12:38:18;;;;;;;42.07;18.80;;;;;;;0.44;86.74;101127.89;124801;1102;104165;-79
2023/01/13 12:41:01;;;;;;;43.47;19.10;;;;;;;0.45;86.97;101141.70;124781;1102;103159;-76
2023/01/13 12:49:30;;;;;;;41.47;19.87;;;;;;;0.24;87.15;101131.33;125007;1106;104191;-78